METAR Data
IDs: Format: Raw Decoded Include TAF

Data at: 2009 UTC 25 Oct 2021

LOWK 251950Z 30003KT CAVOK 03/02 Q1025 NOSIG